Time;durP1;ratioP1;P1;durP2;ratioP2;P2;SDS_P1;SDS_P2;PMS_P1;PMS_P2;Temp;Humidity;BMP_temperature;BMP_pressure;BME280_temperature;BME280_humidity;BME280_pressure;Samples;Min_cycle;Max_cycle;Signal;HPM_P1;HPM_P2
2021/05/28 00:02:24;;;;;;;18.83;8.38;;;9.30;99.90;;;;;;4989811;28;20027;-70
2021/05/28 00:04:49;;;;;;;15.52;8.85;;;9.40;99.90;;;;;;4989843;28;20458;-69
2021/05/28 00:07:17;;;;;;;22.70;9.73;;;9.30;99.90;;;;;;4989949;28;20062;-69
2021/05/28 00:09:47;;;;;;;16.05;7.80;;;9.30;99.90;;;;;;4989717;28;20450;-69
2021/05/28 00:12:13;;;;;;;15.55;7.95;;;9.30;99.90;;;;;;4989820;28;20023;-69
2021/05/28 00:14:39;;;;;;;16.88;8.52;;;9.10;99.90;;;;;;4988468;28;20038;-70
2021/05/28 00:17:04;;;;;;;18.33;9.25;;;9.20;99.90;;;;;;5064501;28;20035;-69
2021/05/28 00:19:35;;;;;;;19.40;9.45;;;9.30;99.90;;;;;;5091920;28;20020;-70
2021/05/28 00:22:01;;;;;;;16.77;8.23;;;9.30;99.90;;;;;;5092131;28;20108;-70
2021/05/28 00:24:29;;;;;;;20.25;9.25;;;9.20;99.90;;;;;;5091782;28;20658;-70
2021/05/28 00:26:54;;;;;;;11.75;8.18;;;9.20;99.90;;;;;;5091902;28;20019;-70
2021/05/28 00:29:20;;;;;;;13.40;8.48;;;9.00;99.90;;;;;;5091760;28;20031;-69
2021/05/28 00:31:46;;;;;;;13.70;7.60;;;9.10;99.90;;;;;;5091815;28;20062;-70
2021/05/28 00:34:11;;;;;;;13.95;8.00;;;9.20;99.90;;;;;;5090705;28;20399;-71
2021/05/28 00:36:39;;;;;;;17.88;7.88;;;9.30;99.90;;;;;;5091483;28;20047;-70
2021/05/28 00:39:05;;;;;;;18.15;8.65;;;9.30;99.90;;;;;;5091579;28;20032;-70
2021/05/28 00:41:33;;;;;;;13.40;8.65;;;9.30;99.90;;;;;;5091460;28;20125;-69
2021/05/28 00:43:59;;;;;;;13.80;7.70;;;9.30;99.90;;;;;;5091431;28;20036;-70
2021/05/28 00:46:26;;;;;;;14.35;7.90;;;9.30;99.90;;;;;;5044153;28;20022;-69
2021/05/28 00:48:55;;;;;;;24.48;8.93;;;9.20;99.90;;;;;;4988883;28;20023;-69
2021/05/28 00:51:22;;;;;;;18.25;8.80;;;9.20;99.90;;;;;;4989321;28;20111;-70
2021/05/28 00:53:50;;;;;;;17.15;8.30;;;9.30;99.90;;;;;;4988937;28;20030;-68
2021/05/28 00:56:16;;;;;;;14.23;8.38;;;9.40;99.90;;;;;;4989025;28;20160;-68
2021/05/28 00:58:42;;;;;;;22.40;9.15;;;9.50;99.90;;;;;;4989080;28;20030;-69
2021/05/28 01:01:09;;;;;;;18.55;10.30;;;9.50;99.90;;;;;;4989286;28;20459;-68
2021/05/28 01:03:35;;;;;;;14.82;8.27;;;9.40;99.90;;;;;;4988218;28;20054;-69
2021/05/28 01:06:03;;;;;;;20.00;9.68;;;9.40;99.90;;;;;;4989101;28;20023;-69
2021/05/28 01:08:30;;;;;;;20.73;8.75;;;9.40;99.90;;;;;;4989336;28;20356;-69
2021/05/28 01:10:58;;;;;;;16.58;9.13;;;9.40;99.90;;;;;;4989228;28;20027;-69
2021/05/28 01:13:23;;;;;;;16.58;9.10;;;9.40;99.90;;;;;;4989082;28;20034;-69
2021/05/28 01:15:49;;;;;;;23.30;9.40;;;9.50;99.90;;;;;;5011381;28;20372;-69
2021/05/28 01:18:15;;;;;;;17.25;8.25;;;9.60;99.90;;;;;;5091364;28;20453;-68
2021/05/28 01:20:40;;;;;;;16.30;9.05;;;9.70;99.90;;;;;;5091302;28;20020;-69
2021/05/28 01:23:06;;;;;;;14.65;8.30;;;9.70;99.90;;;;;;5091736;28;20099;-69
2021/05/28 01:25:32;;;;;;;18.17;10.88;;;9.60;99.90;;;;;;5091874;28;20054;-69
2021/05/28 01:27:58;;;;;;;17.27;8.48;;;9.60;99.90;;;;;;5092991;28;20077;-70
2021/05/28 01:30:26;;;;;;;20.95;10.23;;;9.60;99.90;;;;;;5095023;28;20399;-69
2021/05/28 01:32:52;;;;;;;20.58;8.88;;;9.30;99.90;;;;;;5094980;28;20028;-69
2021/05/28 01:35:18;;;;;;;21.48;9.88;;;9.40;99.90;;;;;;5094857;28;20039;-70
2021/05/28 01:37:44;;;;;;;16.15;8.00;;;9.40;99.90;;;;;;5094419;28;20031;-71
2021/05/28 01:40:11;;;;;;;13.95;8.63;;;9.20;99.90;;;;;;5095088;28;20107;-70
2021/05/28 01:42:36;;;;;;;19.88;9.27;;;9.00;99.90;;;;;;5094813;28;20035;-70
2021/05/28 01:45:04;;;;;;;15.90;9.57;;;9.10;99.90;;;;;;5094864;28;20016;-70
2021/05/28 01:47:33;;;;;;;17.13;8.98;;;9.00;99.90;;;;;;5000924;28;20116;-70
2021/05/28 01:49:58;;;;;;;19.35;9.88;;;8.90;99.90;;;;;;4990889;28;20344;-71
2021/05/28 01:52:25;;;;;;;21.05;10.50;;;9.00;99.90;;;;;;4992005;28;20037;-70
2021/05/28 01:54:51;;;;;;;23.48;11.60;;;9.20;99.90;;;;;;4990778;28;20125;-70
2021/05/28 01:57:18;;;;;;;21.70;10.60;;;9.20;99.90;;;;;;4990862;28;20187;-71
2021/05/28 01:59:47;;;;;;;19.63;10.52;;;9.30;99.90;;;;;;4991864;28;20439;-70
2021/05/28 02:02:16;;;;;;;18.50;10.27;;;9.30;99.90;;;;;;4991849;28;20337;-70
2021/05/28 02:04:42;;;;;;;18.23;10.25;;;9.30;99.90;;;;;;4991662;28;20023;-71
2021/05/28 02:07:11;;;;;;;18.20;10.55;;;9.30;99.90;;;;;;4991637;28;20363;-70
2021/05/28 02:09:39;;;;;;;20.25;11.20;;;9.30;99.90;;;;;;4987918;28;20057;-70
2021/05/28 02:12:07;;;;;;;26.98;11.82;;;9.10;99.90;;;;;;4972137;28;20337;-70
2021/05/28 02:14:34;;;;;;;20.27;11.27;;;9.10;99.90;;;;;;4971239;28;20106;-70
2021/05/28 02:17:00;;;;;;;20.65;11.02;;;9.00;99.90;;;;;;5056822;28;20028;-70
2021/05/28 02:19:28;;;;;;;24.10;12.93;;;8.70;99.90;;;;;;5093939;28;20078;-70
2021/05/28 02:21:53;;;;;;;22.73;13.10;;;8.60;99.90;;;;;;5094064;28;20091;-71
2021/05/28 02:24:22;;;;;;;22.35;13.60;;;8.60;99.90;;;;;;5094155;28;20154;-70
2021/05/28 02:26:52;;;;;;;23.85;12.55;;;8.50;99.90;;;;;;5094260;28;20036;-70
2021/05/28 02:29:19;;;;;;;24.00;14.93;;;8.50;99.90;;;;;;5093928;28;20059;-70
2021/05/28 02:31:45;;;;;;;24.98;12.95;;;8.40;99.90;;;;;;5093818;28;20277;-71
2021/05/28 02:34:10;;;;;;;27.05;12.52;;;8.40;99.90;;;;;;5093723;28;20024;-69
2021/05/28 02:36:36;;;;;;;25.83;15.68;;;8.20;99.90;;;;;;5092821;28;20085;-69
2021/05/28 02:39:03;;;;;;;24.08;14.43;;;8.10;99.90;;;;;;5008958;28;20026;-70
2021/05/28 02:41:28;;;;;;;23.20;14.45;;;8.00;99.90;;;;;;4990294;28;20091;-70
2021/05/28 02:43:56;;;;;;;23.70;14.95;;;7.90;99.90;;;;;;4991092;28;20018;-70
2021/05/28 02:46:22;;;;;;;24.90;15.77;;;7.70;99.90;;;;;;5036373;28;20028;-70
2021/05/28 02:48:47;;;;;;;25.48;16.85;;;7.60;99.90;;;;;;5093470;28;20098;-70
2021/05/28 02:51:20;;;;;;;33.25;16.75;;;7.60;99.90;;;;;;5092726;28;20463;-70
2021/05/28 02:53:46;;;;;;;31.35;18.67;;;7.50;99.90;;;;;;5093549;28;20040;-69
2021/05/28 02:56:14;;;;;;;30.48;16.20;;;7.40;99.90;;;;;;5094454;28;20032;-70
2021/05/28 02:58:40;;;;;;;24.35;15.65;;;7.40;99.90;;;;;;5094239;28;20056;-69
2021/05/28 03:01:10;;;;;;;35.28;18.88;;;7.30;99.90;;;;;;5093936;28;20640;-70
2021/05/28 03:03:36;;;;;;;38.63;20.80;;;7.30;99.90;;;;;;5093605;28;20111;-69
2021/05/28 03:06:01;;;;;;;42.17;22.60;;;7.30;99.90;;;;;;5093157;28;20099;-70
2021/05/28 03:08:27;;;;;;;45.35;21.73;;;7.40;99.90;;;;;;5092406;28;20058;-69
2021/05/28 03:10:53;;;;;;;40.20;20.05;;;7.30;99.90;;;;;;5093170;28;20104;-69
2021/05/28 03:13:19;;;;;;;34.13;19.80;;;7.20;99.90;;;;;;5093230;28;20198;-69
2021/05/28 03:15:44;;;;;;;36.33;20.17;;;7.30;99.90;;;;;;5073057;28;20144;-69
2021/05/28 03:18:18;;;;;;;44.22;23.58;;;7.30;99.90;;;;;;4989467;28;20026;-68
2021/05/28 03:20:51;;;;;;;53.03;26.35;;;7.40;99.90;;;;;;4990455;28;20076;-70
2021/05/28 03:23:17;;;;;;;49.20;24.38;;;7.50;99.90;;;;;;4989508;28;20363;-70
2021/05/28 03:25:45;;;;;;;46.70;27.75;;;7.60;99.90;;;;;;4990365;28;20026;-70
2021/05/28 03:28:11;;;;;;;43.92;25.25;;;7.70;99.90;;;;;;4990444;28;20370;-70
2021/05/28 03:30:37;;;;;;;42.05;24.08;;;7.80;99.90;;;;;;4990606;28;20137;-69
2021/05/28 03:33:05;;;;;;;45.45;28.27;;;7.70;99.90;;;;;;4990321;28;20045;-68
2021/05/28 03:35:33;;;;;;;47.85;24.95;;;7.80;99.90;;;;;;4990236;28;20026;-67
2021/05/28 03:38:01;;;;;;;47.53;27.83;;;7.70;99.90;;;;;;4990179;28;20026;-68
2021/05/28 03:40:27;;;;;;;53.60;27.17;;;7.70;99.90;;;;;;4989982;28;20437;-68
2021/05/28 03:42:52;;;;;;;45.60;26.08;;;7.80;99.90;;;;;;4990242;28;20106;-68
2021/05/28 03:45:23;;;;;;;47.13;24.35;;;7.80;99.90;;;;;;4989328;28;20022;-68
2021/05/28 03:47:51;;;;;;;50.95;24.40;;;7.80;99.90;;;;;;5092388;28;20396;-68
2021/05/28 03:50:16;;;;;;;41.22;24.40;;;7.80;99.90;;;;;;5091473;28;20032;-67
2021/05/28 03:52:42;;;;;;;47.78;26.58;;;7.80;99.90;;;;;;5092352;28;20024;-67
2021/05/28 03:55:08;;;;;;;53.80;27.02;;;7.90;99.90;;;;;;5090939;28;20058;-69
2021/05/28 03:57:36;;;;;;;40.17;23.92;;;7.90;99.90;;;;;;5092108;28;20024;-69
2021/05/28 04:00:04;;;;;;;42.25;24.55;;;7.90;99.90;;;;;;5092282;28;20419;-68
2021/05/28 04:02:29;;;;;;;36.03;23.13;;;7.90;99.90;;;;;;5092266;28;20089;-69
2021/05/28 04:04:55;;;;;;;41.65;23.90;;;7.90;99.90;;;;;;5091042;28;20445;-71
2021/05/28 04:07:24;;;;;;;40.22;23.00;;;7.90;99.90;;;;;;5092165;28;20024;-72
2021/05/28 04:09:49;;;;;;;44.13;23.23;;;7.80;99.90;;;;;;5091983;28;20054;-69
2021/05/28 04:12:15;;;;;;;36.90;23.98;;;7.70;99.90;;;;;;5091982;28;20036;-70
2021/05/28 04:14:41;;;;;;;39.28;25.25;;;7.90;99.90;;;;;;5091930;28;20024;-69
2021/05/28 04:17:06;;;;;;;41.20;23.23;;;8.00;99.90;;;;;;5014395;28;20039;-72
2021/05/28 04:19:32;;;;;;;40.67;23.08;;;8.00;99.90;;;;;;4989454;28;20400;-72
2021/05/28 04:21:57;;;;;;;38.38;22.65;;;8.10;99.90;;;;;;4989573;28;20026;-71
2021/05/28 04:24:23;;;;;;;43.45;24.10;;;8.20;99.90;;;;;;4989477;28;20022;-70
2021/05/28 04:26:53;;;;;;;40.90;25.58;;;8.30;99.90;;;;;;4989583;28;20034;-69
2021/05/28 04:29:20;;;;;;;35.80;22.90;;;8.30;99.90;;;;;;4989553;28;20359;-70
2021/05/28 04:31:46;;;;;;;35.03;21.85;;;8.40;99.90;;;;;;4989564;28;20129;-70
2021/05/28 04:34:14;;;;;;;40.03;22.98;;;8.40;99.90;;;;;;4989366;28;20102;-69
2021/05/28 04:36:41;;;;;;;35.30;22.55;;;8.50;99.90;;;;;;4988341;28;20358;-69
2021/05/28 04:39:07;;;;;;;45.20;26.48;;;8.60;99.90;;;;;;4989217;28;20050;-70
2021/05/28 04:41:33;;;;;;;38.50;24.45;;;8.60;99.90;;;;;;4989423;28;20061;-70
2021/05/28 04:44:00;;;;;;;42.53;25.13;;;8.70;99.90;;;;;;4989234;28;20499;-69
2021/05/28 04:46:27;;;;;;;40.67;23.42;;;8.80;99.90;;;;;;4979940;28;20349;-70
2021/05/28 04:48:55;;;;;;;35.33;23.27;;;8.80;99.90;;;;;;4970080;28;20084;-69
2021/05/28 04:51:20;;;;;;;38.85;23.27;;;8.90;99.90;;;;;;4970043;28;20092;-69
2021/05/28 04:53:46;;;;;;;42.08;25.13;;;8.90;99.90;;;;;;4969521;28;20046;-68
2021/05/28 04:56:12;;;;;;;33.50;21.67;;;9.00;99.90;;;;;;4969527;28;20059;-69
2021/05/28 04:58:37;;;;;;;35.55;22.45;;;9.00;99.90;;;;;;4969500;28;20110;-69
2021/05/28 05:01:03;;;;;;;35.35;23.52;;;9.10;99.90;;;;;;4969450;28;20022;-69
2021/05/28 05:03:28;;;;;;;36.25;24.02;;;9.20;99.90;;;;;;4972539;28;20436;-69
2021/05/28 05:05:56;;;;;;;32.80;22.08;;;9.30;99.90;;;;;;4972987;28;20116;-69
2021/05/28 05:08:22;;;;;;;29.52;21.58;;;9.30;99.90;;;;;;4986456;28;20026;-69
2021/05/28 05:10:49;;;;;;;31.55;21.38;;;9.40;99.90;;;;;;4991197;28;20034;-69
2021/05/28 05:13:17;;;;;;;29.85;21.88;;;9.40;99.90;;;;;;4992283;28;20672;-69
2021/05/28 05:15:45;;;;;;;33.40;21.75;;;9.50;99.90;;;;;;5010227;28;20028;-72
2021/05/28 05:18:11;;;;;;;34.47;21.95;;;9.60;99.90;;;;;;5094988;28;20093;-71
2021/05/28 05:20:39;;;;;;;30.88;21.08;;;9.60;99.90;;;;;;5095013;28;20032;-71
2021/05/28 05:23:07;;;;;;;32.70;22.02;;;9.70;99.90;;;;;;5094270;28;20099;-71
2021/05/28 05:25:35;;;;;;;36.85;23.83;;;9.80;99.90;;;;;;5093898;28;20026;-71
2021/05/28 05:28:03;;;;;;;30.80;22.08;;;9.90;99.90;;;;;;5094827;28;20042;-71
2021/05/28 05:30:29;;;;;;;36.70;22.98;;;9.90;99.90;;;;;;5093690;28;20425;-70
2021/05/28 05:32:54;;;;;;;33.40;22.67;;;9.90;99.90;;;;;;5094779;28;20099;-70
2021/05/28 05:35:20;;;;;;;31.77;22.58;;;10.10;99.90;;;;;;5094608;28;20054;-70
2021/05/28 05:37:45;;;;;;;35.22;23.23;;;10.20;99.90;;;;;;5093528;28;20028;-69
2021/05/28 05:40:14;;;;;;;37.80;24.70;;;10.20;99.90;;;;;;5094586;28;20428;-71
2021/05/28 05:42:40;;;;;;;35.80;23.48;;;10.30;99.90;;;;;;5094606;28;20020;-71
2021/05/28 05:45:08;;;;;;;44.55;24.17;;;10.30;99.90;;;;;;5094685;28;20024;-72
2021/05/28 05:47:34;;;;;;;40.45;25.92;;;10.40;99.90;;;;;;4998199;28;20033;-72
2021/05/28 05:50:02;;;;;;;40.15;23.77;;;10.40;99.90;;;;;;4990637;28;20091;-71
2021/05/28 05:52:29;;;;;;;38.08;23.17;;;10.50;99.90;;;;;;4992005;28;20602;-71
2021/05/28 05:54:55;;;;;;;39.58;24.17;;;10.70;99.90;;;;;;4991689;28;20058;-71
2021/05/28 05:57:21;;;;;;;35.58;24.48;;;10.80;99.90;;;;;;4991691;28;20027;-69
2021/05/28 05:59:49;;;;;;;34.33;23.05;;;11.00;99.90;;;;;;4992170;28;20365;-68
2021/05/28 06:02:14;;;;;;;34.03;24.77;;;11.10;99.90;;;;;;5001785;28;20637;-69
2021/05/28 06:04:40;;;;;;;38.33;23.20;;;11.20;99.90;;;;;;4992155;28;20093;-71
2021/05/28 06:07:05;;;;;;;31.42;21.55;;;11.40;99.90;;;;;;4993053;28;20039;-68
2021/05/28 06:09:31;;;;;;;34.75;22.38;;;11.50;99.90;;;;;;4991093;28;20030;-69
2021/05/28 06:11:58;;;;;;;26.48;17.23;;;11.70;99.90;;;;;;4991739;28;20033;-70
2021/05/28 06:14:24;;;;;;;25.60;16.13;;;11.70;99.90;;;;;;4990023;28;20155;-69
2021/05/28 06:16:51;;;;;;;28.80;16.30;;;11.90;99.90;;;;;;5031544;28;20107;-69
2021/05/28 06:19:19;;;;;;;21.25;13.43;;;12.00;99.90;;;;;;5093018;28;20530;-71
2021/05/28 06:21:47;;;;;;;20.85;14.30;;;12.20;99.90;;;;;;5093419;28;20576;-72
2021/05/28 06:24:18;;;;;;;21.40;14.43;;;12.50;99.90;;;;;;5092685;28;20028;-71
2021/05/28 06:26:43;;;;;;;25.95;17.58;;;12.80;99.90;;;;;;5093861;28;20013;-72
2021/05/28 06:29:10;;;;;;;21.58;13.52;;;13.00;99.90;;;;;;5093747;28;20027;-69
2021/05/28 06:31:36;;;;;;;20.50;14.52;;;13.20;99.90;;;;;;5093818;28;20035;-70
2021/05/28 06:34:02;;;;;;;24.58;13.68;;;13.50;99.90;;;;;;5093731;28;20031;-71
2021/05/28 06:36:31;;;;;;;22.90;12.50;;;13.90;99.90;;;;;;5092699;28;20077;-71
2021/05/28 06:38:57;;;;;;;19.80;12.05;;;14.20;99.90;;;;;;5093170;28;20028;-70
2021/05/28 06:41:23;;;;;;;16.80;11.10;;;14.10;99.90;;;;;;5092661;28;20049;-70
2021/05/28 06:43:49;;;;;;;20.25;11.85;;;14.90;99.90;;;;;;5093547;28;20179;-67
2021/05/28 06:46:16;;;;;;;17.63;10.75;;;15.30;99.90;;;;;;5052066;28;20030;-70
2021/05/28 06:48:41;;;;;;;20.05;12.02;;;15.50;99.90;;;;;;4991141;28;20079;-71
2021/05/28 06:51:09;;;;;;;14.48;9.57;;;16.10;99.90;;;;;;4991030;28;20031;-71
2021/05/28 06:53:38;;;;;;;15.35;9.35;;;16.40;99.90;;;;;;4990822;28;20065;-72
2021/05/28 06:56:06;;;;;;;17.75;9.23;;;16.60;99.90;;;;;;4989904;28;20030;-71
2021/05/28 06:58:33;;;;;;;15.02;9.32;;;16.70;99.90;;;;;;4990946;28;20034;-69
2021/05/28 07:00:59;;;;;;;14.70;10.63;;;16.60;99.90;;;;;;4990580;28;20018;-70
2021/05/28 07:03:27;;;;;;;16.48;8.95;;;17.00;99.90;;;;;;4990723;28;20049;-72
2021/05/28 07:05:53;;;;;;;15.95;9.43;;;17.10;99.90;;;;;;4990827;28;20030;-68
2021/05/28 07:08:18;;;;;;;12.00;8.52;;;17.20;99.90;;;;;;4990253;28;20126;-67
2021/05/28 07:10:44;;;;;;;17.77;8.25;;;18.70;99.10;;;;;;4990113;28;20027;-68
2021/05/28 07:13:12;;;;;;;14.63;8.45;;;20.50;95.40;;;;;;4990782;28;20022;-70
2021/05/28 07:15:40;;;;;;;11.95;7.95;;;22.20;90.90;;;;;;5004318;28;20538;-73
2021/05/28 07:18:08;;;;;;;14.32;8.95;;;23.00;88.20;;;;;;5093138;28;20047;-68
2021/05/28 07:20:35;;;;;;;16.73;9.85;;;23.80;82.70;;;;;;5091882;28;20024;-69
2021/05/28 07:23:00;;;;;;;16.48;9.52;;;23.40;80.70;;;;;;5093025;28;20107;-68
2021/05/28 07:25:26;;;;;;;16.25;9.05;;;23.40;79.00;;;;;;5092602;28;20051;-68
2021/05/28 07:27:52;;;;;;;10.32;6.60;;;23.20;79.20;;;;;;5091075;28;20024;-69
2021/05/28 07:30:21;;;;;;;9.73;6.53;;;22.90;77.40;;;;;;5092719;28;20040;-68
2021/05/28 07:32:46;;;;;;;11.43;6.78;;;22.40;79.10;;;;;;5092655;28;20380;-68
2021/05/28 07:35:13;;;;;;;13.25;7.07;;;22.60;79.10;;;;;;5091761;28;20115;-68
2021/05/28 07:37:43;;;;;;;11.27;6.45;;;22.70;77.30;;;;;;5053035;28;20056;-68
2021/05/28 07:40:11;;;;;;;;;;;23.10;77.60;;;;;;4990790;28;20427;-68
2021/05/28 07:42:40;;;;;;;8.85;6.75;;;23.70;78.20;;;;;;4990443;28;19913;-68
2021/05/28 07:45:07;;;;;;;14.60;6.90;;;23.90;73.50;;;;;;4989181;28;20050;-68
2021/05/28 07:47:33;;;;;;;11.60;7.38;;;22.90;74.60;;;;;;5085904;28;20518;-68
2021/05/28 07:50:00;;;;;;;9.68;7.63;;;21.70;79.30;;;;;;5092343;28;20031;-69
2021/05/28 07:52:26;;;;;;;12.77;8.20;;;20.90;84.10;;;;;;5092643;28;20464;-68
2021/05/28 07:54:54;;;;;;;17.75;8.27;;;20.80;84.10;;;;;;5092195;28;20044;-68
2021/05/28 07:57:20;;;;;;;11.57;6.97;;;20.60;84.30;;;;;;5092471;28;20100;-68
2021/05/28 07:59:48;;;;;;;15.25;8.90;;;19.80;87.70;;;;;;5092376;28;20602;-68
2021/05/28 08:02:15;;;;;;;16.63;8.90;;;19.70;88.50;;;;;;5092424;28;20028;-67
2021/05/28 08:04:41;;;;;;;14.70;8.38;;;19.40;90.00;;;;;;5092266;28;20475;-67
2021/05/28 08:07:09;;;;;;;11.50;8.05;;;19.80;89.20;;;;;;5092100;28;20066;-68
2021/05/28 08:09:34;;;;;;;12.23;8.38;;;20.10;86.40;;;;;;5091101;28;20024;-68
2021/05/28 08:12:00;;;;;;;12.38;7.95;;;19.80;87.40;;;;;;5091362;28;20028;-68
2021/05/28 08:14:28;;;;;;;10.48;7.47;;;19.50;87.10;;;;;;5092117;28;20107;-68
2021/05/28 08:16:55;;;;;;;12.93;7.78;;;19.40;89.10;;;;;;5092146;28;20106;-68
2021/05/28 08:19:26;;;;;;;13.05;8.20;;;19.40;90.10;;;;;;5092406;28;20039;-67
2021/05/28 08:21:52;;;;;;;14.80;8.38;;;19.30;90.50;;;;;;5091200;28;20024;-69
2021/05/28 08:24:18;;;;;;;10.68;6.90;;;18.90;90.30;;;;;;5092047;28;20414;-67
2021/05/28 08:26:48;;;;;;;12.50;7.25;;;18.80;90.20;;;;;;5091932;28;20020;-68
2021/05/28 08:29:14;;;;;;;16.13;8.13;;;19.00;90.20;;;;;;4996738;28;20023;-68
2021/05/28 08:31:39;;;;;;;10.50;7.78;;;19.40;88.40;;;;;;4989900;28;20122;-67
2021/05/28 08:34:07;;;;;;;10.32;6.53;;;20.20;84.30;;;;;;4988194;28;20398;-68
2021/05/28 08:36:33;;;;;;;11.77;6.82;;;20.30;82.60;;;;;;4988972;28;20026;-68
2021/05/28 08:39:02;;;;;;;10.25;7.03;;;20.20;84.90;;;;;;4992800;28;20076;-66
2021/05/28 08:41:28;;;;;;;13.93;7.22;;;20.50;83.80;;;;;;4992152;28;20033;-72
2021/05/28 08:43:55;;;;;;;10.77;6.22;;;21.60;78.60;;;;;;4991744;28;20025;-68
2021/05/28 08:46:23;;;;;;;11.90;6.22;;;23.60;72.90;;;;;;5037401;28;20024;-72
2021/05/28 08:48:50;;;;;;;9.93;6.72;;;25.10;69.30;;;;;;5095819;28;20042;-72
2021/05/28 08:51:17;;;;;;;16.77;7.07;;;26.90;63.30;;;;;;5095800;28;20129;-85
2021/05/28 08:53:43;;;;;;;11.60;5.95;;;27.40;62.40;;;;;;5095741;28;20113;-77
2021/05/28 08:56:16;;;;;;;12.07;7.03;;;27.90;60.50;;;;;;5095852;28;20016;-74
2021/05/28 08:58:42;;;;;;;7.22;5.38;;;28.60;58.30;;;;;;5094621;28;20056;-77
2021/05/28 09:01:08;;;;;;;7.00;4.80;;;28.90;57.20;;;;;;5095779;28;20071;-75
2021/05/28 09:03:36;;;;;;;9.10;5.60;;;28.90;57.40;;;;;;5095756;28;20105;-75
2021/05/28 09:06:16;;;;;;;10.20;5.93;;;29.60;54.60;;;;;;5095533;28;20032;-71
2021/05/28 09:08:42;;;;;;;;;;;29.80;54.60;;;;;;5094869;28;20024;-71
2021/05/28 09:11:17;;;;;;;9.13;4.57;;;29.40;56.10;;;;;;5095387;28;20045;-74
2021/05/28 09:13:57;;;;;;;4.78;3.55;;;28.70;53.80;;;;;;5095483;28;20020;-74
2021/05/28 09:16:27;;;;;;;7.20;3.97;;;28.40;55.60;;;;;;5049503;28;20503;-71
2021/05/28 09:18:56;;;;;;;4.97;4.15;;;28.30;55.00;;;;;;4991583;28;20129;-73
2021/05/28 09:21:30;;;;;;;8.13;4.65;;;29.00;53.50;;;;;;4991566;28;20029;-72
2021/05/28 09:23:56;;;;;;;5.85;3.72;;;29.70;53.20;;;;;;4992502;28;20034;-72
2021/05/28 09:26:25;;;;;;;6.95;4.32;;;29.10;54.30;;;;;;4991398;28;20378;-74
2021/05/28 09:28:51;;;;;;;5.50;3.83;;;30.00;53.40;;;;;;4992347;28;20032;-71
2021/05/28 09:31:22;;;;;;;6.97;4.07;;;30.50;52.00;;;;;;4991648;28;20122;-73
2021/05/28 09:33:50;;;;;;;5.25;3.95;;;29.70;51.00;;;;;;4992582;28;20317;-73
2021/05/28 09:36:20;;;;;;;5.43;4.00;;;29.60;52.20;;;;;;4992570;28;20087;-76
2021/05/28 09:39:12;;;;;;;5.65;3.95;;;30.20;52.50;;;;;;4992166;28;20030;-73
2021/05/28 09:41:57;;;;;;;8.18;4.68;;;29.60;51.20;;;;;;4992218;28;20316;-74
2021/05/28 09:44:24;;;;;;;7.05;3.90;;;27.90;54.00;;;;;;4992152;28;20022;-72
2021/05/28 09:47:14;;;;;;;7.07;4.70;;;26.90;55.90;;;;;;5057234;28;20016;-70
2021/05/28 09:49:55;;;;;;;4.07;3.67;;;27.20;54.10;;;;;;5094847;28;20404;-71
2021/05/28 09:52:28;;;;;;;5.97;4.43;;;27.20;54.50;;;;;;5094934;28;20430;-71
2021/05/28 09:55:02;;;;;;;5.05;3.83;;;27.30;55.90;;;;;;5094838;28;20100;-71
2021/05/28 09:57:35;;;;;;;7.28;4.30;;;28.20;53.70;;;;;;5094579;28;20130;-70
2021/05/28 10:00:22;;;;;;;7.30;3.90;;;28.00;53.10;;;;;;5094588;28;20016;-72
2021/05/28 10:02:49;;;;;;;5.18;4.03;;;28.30;52.50;;;;;;5094733;28;20353;-72
2021/05/28 10:05:25;;;;;;;5.72;3.30;;;29.60;52.40;;;;;;5092970;28;20449;-72
2021/05/28 10:07:51;;;;;;;5.55;3.20;;;30.40;51.80;;;;;;5038956;28;20103;-73
2021/05/28 10:10:18;;;;;;;5.72;4.15;;;30.10;51.30;;;;;;4991830;28;20501;-73
2021/05/28 10:12:48;;;;;;;5.13;3.60;;;30.10;50.80;;;;;;4990671;28;20447;-75
2021/05/28 10:15:15;;;;;;;4.38;3.47;;;30.20;49.30;;;;;;4991668;28;20128;-74
2021/05/28 10:17:41;;;;;;;6.53;3.63;;;29.20;51.90;;;;;;5092263;28;20424;-73
2021/05/28 10:20:07;;;;;;;4.68;3.15;;;29.50;52.50;;;;;;5094169;28;20043;-72
2021/05/28 10:22:33;;;;;;;4.32;3.55;;;30.70;51.40;;;;;;5094082;28;20047;-72
2021/05/28 10:25:06;;;;;;;4.78;3.63;;;31.00;48.80;;;;;;5093999;28;20035;-73
2021/05/28 10:27:32;;;;;;;4.07;3.35;;;30.80;49.00;;;;;;5094099;28;20028;-74
2021/05/28 10:29:58;;;;;;;6.03;3.30;;;30.80;48.90;;;;;;5093920;28;20028;-71
2021/05/28 10:32:24;;;;;;;4.15;3.13;;;30.30;49.00;;;;;;5093003;28;20078;-72
2021/05/28 10:35:17;;;;;;;6.47;3.70;;;30.50;50.60;;;;;;5093869;28;20465;-71
2021/05/28 10:37:45;;;;;;;6.22;3.92;;;30.30;49.40;;;;;;5092931;28;20485;-73
2021/05/28 10:40:30;;;;;;;5.93;3.90;;;29.10;51.20;;;;;;5093826;28;20052;-73
2021/05/28 10:43:03;;;;;;;5.93;3.90;;;27.30;52.50;;;;;;5092785;28;20024;-73
2021/05/28 10:46:03;;;;;;;5.72;3.47;;;26.10;55.50;;;;;;5084216;28;20028;-72
2021/05/28 10:48:39;;;;;;;4.13;3.38;;;28.10;53.50;;;;;;4991158;28;20581;-72
2021/05/28 10:51:12;;;;;;;5.30;3.47;;;29.40;51.40;;;;;;4991155;28;20052;-77
2021/05/28 10:53:39;;;;;;;5.78;3.30;;;31.10;50.70;;;;;;4990919;28;20041;-75
2021/05/28 10:56:16;;;;;;;6.00;3.15;;;32.70;49.30;;;;;;4989884;28;20026;-75
2021/05/28 10:58:53;;;;;;;5.10;3.35;;;33.00;46.80;;;;;;4991024;28;20047;-75
2021/05/28 11:01:47;;;;;;;7.40;4.25;;;33.00;46.20;;;;;;4990785;28;20051;-74
2021/05/28 11:04:15;;;;;;;5.50;3.40;;;32.10;46.00;;;;;;4990766;28;20034;-75
2021/05/28 11:06:56;;;;;;;5.72;3.97;;;29.70;48.00;;;;;;4991044;28;20032;-75
2021/05/28 11:09:40;;;;;;;5.18;3.50;;;27.70;51.30;;;;;;4989840;28;20026;-75
2021/05/28 11:12:25;;;;;;;4.53;3.10;;;27.60;54.70;;;;;;4989249;28;20030;-74
2021/05/28 11:15:07;;;;;;;4.95;3.17;;;29.60;50.80;;;;;;4988743;28;20023;-75
2021/05/28 11:18:03;;;;;;;4.75;2.42;;;31.00;48.20;;;;;;5085151;28;20028;-75
2021/05/28 11:20:37;;;;;;;4.65;2.80;;;30.70;46.90;;;;;;5091224;28;20032;-75
2021/05/28 11:23:13;;;;;;;4.22;2.50;;;30.10;48.20;;;;;;5091745;28;20350;-75
2021/05/28 11:26:02;;;;;;;4.22;2.50;;;31.00;48.80;;;;;;5092512;28;20434;-75
2021/05/28 11:28:27;;;;;;;4.30;2.90;;;32.30;47.10;;;;;;5092591;28;20107;-74
2021/05/28 11:31:00;;;;;;;2.95;2.42;;;33.10;45.50;;;;;;5092908;28;20063;-72
2021/05/28 11:33:44;;;;;;;4.88;2.60;;;34.10;43.90;;;;;;5092454;28;20374;-75
2021/05/28 11:36:45;;;;;;;2.50;2.28;;;34.70;44.30;;;;;;5092363;28;20076;-74
2021/05/28 11:39:24;;;;;;;5.25;2.03;;;32.60;44.80;;;;;;5092362;28;20401;-75
2021/05/28 11:41:52;;;;;;;4.30;2.58;;;32.70;45.50;;;;;;5091353;28;20024;-74
2021/05/28 11:44:21;;;;;;;3.25;2.60;;;33.10;44.70;;;;;;5092231;28;20031;-74
2021/05/28 11:46:53;;;;;;;3.78;2.15;;;33.00;44.00;;;;;;5028441;28;20033;-74
2021/05/28 11:49:21;;;;;;;5.13;2.75;;;33.30;45.20;;;;;;4990083;28;20026;-78
2021/05/28 11:52:07;;;;;;;3.90;2.58;;;32.50;44.30;;;;;;4989990;28;20481;-74
2021/05/28 11:54:35;;;;;;;3.88;2.50;;;31.00;45.10;;;;;;4989572;28;20111;-72
2021/05/28 11:57:05;;;;;;;2.50;2.30;;;29.90;47.70;;;;;;5004716;28;20092;-73
2021/05/28 11:59:52;;;;;;;3.85;2.60;;;30.10;48.40;;;;;;5092136;28;20043;-73
2021/05/28 12:02:40;;;;;;;5.28;2.20;;;30.40;47.90;;;;;;5092022;28;20044;-73
2021/05/28 12:05:20;;;;;;;2.55;2.30;;;31.70;45.40;;;;;;5090763;28;20024;-73
2021/05/28 12:07:46;;;;;;;4.97;2.33;;;31.70;45.90;;;;;;5092066;28;20024;-71
2021/05/28 12:10:15;;;;;;;4.50;2.17;;;32.20;44.60;;;;;;5091767;28;20114;-71
2021/05/28 12:13:02;;;;;;;3.22;2.22;;;31.80;44.60;;;;;;5089939;28;20032;-71
2021/05/28 12:15:31;;;;;;;4.28;1.98;;;32.40;46.10;;;;;;5084537;28;20038;-72
2021/05/28 12:17:59;;;;;;;2.67;2.10;;;33.40;44.30;;;;;;4989690;28;20072;-76
2021/05/28 12:20:32;;;;;;;2.17;1.77;;;33.60;44.20;;;;;;4989584;28;20018;-73
2021/05/28 12:23:13;;;;;;;2.75;1.95;;;33.50;43.30;;;;;;4989600;28;20122;-78
2021/05/28 12:25:44;;;;;;;4.00;1.83;;;33.70;44.00;;;;;;4989308;28;20050;-71
2021/05/28 12:28:36;;;;;;;3.47;2.20;;;32.20;44.00;;;;;;4989386;28;20030;-74
2021/05/28 12:31:22;;;;;;;5.38;2.50;;;32.60;43.90;;;;;;4989331;28;20542;-75
2021/05/28 12:33:57;;;;;;;2.30;2.10;;;32.70;43.50;;;;;;4988616;28;20049;-80
2021/05/28 12:36:30;;;;;;;3.03;2.08;;;32.40;44.20;;;;;;4989271;28;20033;-77
2021/05/28 12:39:00;;;;;;;5.70;2.08;;;32.10;42.90;;;;;;4969814;28;20039;-78
2021/05/28 12:41:28;;;;;;;2.10;1.90;;;32.00;44.20;;;;;;4969907;28;20023;-75
2021/05/28 12:43:55;;;;;;;2.03;1.52;;;32.30;42.80;;;;;;4969786;28;20027;-75
2021/05/28 12:46:28;;;;;;;2.50;1.95;;;32.00;44.60;;;;;;5022633;28;20024;-72
2021/05/28 12:48:56;;;;;;;1.88;1.50;;;32.40;42.60;;;;;;5091368;28;20358;-73
2021/05/28 12:51:50;;;;;;;2.53;2.15;;;32.30;43.50;;;;;;5091291;28;20120;-72